Time;durP1;ratioP1;P1;durP2;ratioP2;P2;SDS_P1;SDS_P2;PMS_P1;PMS_P2;Temp;Humidity;BMP_temperature;BMP_pressure;BME280_temperature;BME280_humidity;BME280_pressure;Samples;Min_cycle;Max_cycle;Signal;HPM_P1;HPM_P2
2022/09/13 00:00:32;;;;;;;;;;;17.40;99.90;;;;;;5016063;28;19928;-29
2022/09/13 00:02:58;;;;;;;;;;;17.40;99.90;;;;;;5009454;28;19917;-29
2022/09/13 00:05:24;;;;;;;;;;;17.40;99.90;;;;;;5017225;28;19917;-29
2022/09/13 00:07:49;;;;;;;;;;;17.30;99.90;;;;;;5013112;28;19928;-29
2022/09/13 00:10:15;;;;;;;;;;;17.30;99.90;;;;;;5033403;28;20011;-29
2022/09/13 00:12:41;;;;;;;;;;;17.30;99.90;;;;;;5017414;28;20012;-29
2022/09/13 00:15:07;;;;;;;;;;;17.30;99.90;;;;;;5022766;28;19917;-29
2022/09/13 00:17:33;;;;;;;;;;;17.30;99.90;;;;;;5027479;28;19923;-29
2022/09/13 00:19:59;;;;;;;;;;;17.20;99.90;;;;;;5023609;28;19990;-29
2022/09/13 00:22:25;;;;;;;;;;;17.20;99.90;;;;;;5015689;28;19917;-29
2022/09/13 00:24:51;;;;;;;;;;;17.20;99.90;;;;;;5015742;28;19946;-29
2022/09/13 00:27:16;;;;;;;;;;;17.20;99.90;;;;;;5007758;28;19921;-29
2022/09/13 00:29:42;;;;;;;;;;;17.20;99.90;;;;;;5015856;28;19942;-29
2022/09/13 00:32:08;;;;;;;;;;;17.20;99.90;;;;;;5029278;28;19924;-29
2022/09/13 00:34:33;;;;;;;;;;;17.20;99.90;;;;;;5025268;28;20305;-29
2022/09/13 00:36:59;;;;;;;;;;;17.10;99.90;;;;;;5019670;28;19978;-29
2022/09/13 00:39:24;;;;;;;;;;;17.10;99.90;;;;;;5025288;28;19917;-29
2022/09/13 00:41:50;;;;;;;;;;;17.10;99.90;;;;;;5016046;28;20407;-30
2022/09/13 00:44:34;;;;;;;;;;;17.20;99.90;;;;;;5018146;28;19917;-29
2022/09/13 00:47:00;;;;;;;;;;;17.10;99.90;;;;;;5012455;28;20047;-29
2022/09/13 00:49:33;;;;;;;;;;;17.10;99.90;;;;;;5023461;28;19990;-29
2022/09/13 00:52:02;;;;;;;;;;;17.10;99.90;;;;;;5013846;28;20393;-29
2022/09/13 00:54:32;;;;;;;;;;;17.10;99.90;;;;;;5036728;28;19916;-29
2022/09/13 00:56:58;;;;;;;;;;;17.10;99.90;;;;;;5033038;28;20392;-29
2022/09/13 00:59:27;;;;;;;;;;;17.10;99.90;;;;;;5019187;28;19940;-29
2022/09/13 01:01:54;;;;;;;;;;;17.10;99.90;;;;;;5005595;28;19921;-29
2022/09/13 01:04:21;;;;;;;;;;;17.00;99.90;;;;;;5013672;28;19960;-29
2022/09/13 01:06:47;;;;;;;;;;;17.00;99.90;;;;;;5029200;28;19917;-29
2022/09/13 01:09:14;;;;;;;;;;;17.10;99.90;;;;;;5016259;28;20427;-29
2022/09/13 01:11:49;;;;;;;;;;;17.00;99.90;;;;;;5004775;28;19921;-30
2022/09/13 01:14:18;;;;;;;;;;;17.00;99.90;;;;;;5018711;28;19916;-29
2022/09/13 01:16:44;;;;;;;;;;;17.00;99.90;;;;;;5021416;28;19939;-31
2022/09/13 01:19:09;;;;;;;;;;;16.90;99.90;;;;;;5014395;28;20015;-32
2022/09/13 01:21:35;;;;;;;;;;;17.00;99.90;;;;;;5008886;28;19921;-29
2022/09/13 01:24:07;;;;;;;;;;;17.00;99.90;;;;;;5017231;28;19977;-30
2022/09/13 01:26:41;;;;;;;;;;;17.00;99.90;;;;;;5033372;28;20306;-31
2022/09/13 01:29:19;;;;;;;;;;;17.00;99.90;;;;;;5031556;28;20007;-30
2022/09/13 01:31:48;;;;;;;;;;;17.00;99.90;;;;;;5021295;28;19970;-31
2022/09/13 01:34:37;;;;;;;;;;;17.00;99.90;;;;;;5028601;28;19917;-31
2022/09/13 01:37:09;;;;;;;;;;;17.00;99.90;;;;;;4984584;28;19917;-31
2022/09/13 01:40:01;;;;;;;;;;;17.00;99.90;;;;;;5035142;28;19932;-31
2022/09/13 01:42:26;;;;;;;;;;;17.00;99.90;;;;;;5011828;28;19924;-30
2022/09/13 01:45:02;;;;;;;;;;;17.00;99.90;;;;;;5035347;28;19917;-31
2022/09/13 01:47:28;;;;;;;;;;;17.00;99.90;;;;;;5031643;28;19963;-30
2022/09/13 01:49:59;;;;;;;;;;;17.00;99.90;;;;;;5007171;28;19917;-30
2022/09/13 01:52:32;;;;;;;;;;;17.00;99.90;;;;;;5026281;28;19920;-30
2022/09/13 01:55:07;;;;;;;;;;;17.00;99.90;;;;;;4990283;28;19924;-30
2022/09/13 01:57:37;;;;;;;;;;;17.00;99.90;;;;;;5004443;28;19917;-29
2022/09/13 02:00:03;;;;;;;;;;;17.00;99.90;;;;;;5024927;28;19928;-29
2022/09/13 02:02:55;;;;;;;;;;;16.90;99.90;;;;;;5016596;28;20019;-32
2022/09/13 02:05:47;;;;;;;;;;;16.90;99.90;;;;;;5000571;28;19917;-28
2022/09/13 02:08:16;;;;;;;;;;;17.00;99.90;;;;;;5017896;28;19970;-32
2022/09/13 02:10:50;;;;;;;;;;;17.00;99.90;;;;;;5032547;28;19926;-32
2022/09/13 02:13:19;;;;;;;;;;;17.00;99.90;;;;;;5017060;28;19996;-32
2022/09/13 02:15:50;;;;;;;;;;;17.00;99.90;;;;;;5015121;28;19939;-32
2022/09/13 02:18:18;;;;;;;;;;;17.00;99.90;;;;;;5013037;28;19925;-31
2022/09/13 02:20:46;;;;;;;;;;;17.00;99.90;;;;;;5027171;28;20330;-30
2022/09/13 02:23:24;;;;;;;;;;;17.00;99.90;;;;;;5033905;28;19917;-29
2022/09/13 02:25:51;;;;;;;;;;;17.00;99.90;;;;;;5023082;28;19999;-31
2022/09/13 02:28:20;;;;;;;;;;;17.00;99.90;;;;;;5007994;28;19917;-32
2022/09/13 02:30:50;;;;;;;;;;;17.00;99.90;;;;;;5019048;28;19923;-31
2022/09/13 02:33:17;;;;;;;;;;;17.00;99.90;;;;;;5019178;28;19963;-31
2022/09/13 02:36:12;;;;;;;;;;;17.00;99.90;;;;;;5032515;28;19922;-32
2022/09/13 02:38:46;;;;;;;;;;;17.00;99.90;;;;;;5008701;28;20459;-31
2022/09/13 02:41:15;;;;;;;;;;;17.00;99.90;;;;;;5028012;28;20275;-32
2022/09/13 02:43:44;;;;;;;;;;;16.90;99.90;;;;;;5035024;28;19916;-30
2022/09/13 02:46:19;;;;;;;;;;;16.90;99.90;;;;;;5039056;28;19931;-29
2022/09/13 02:49:17;;;;;;;;;;;17.00;99.90;;;;;;5005582;28;20004;-30
2022/09/13 02:51:43;;;;;;;;;;;17.00;99.90;;;;;;4992733;28;19917;-30
2022/09/13 02:54:14;;;;;;;;;;;17.00;99.90;;;;;;5027955;28;19923;-30
2022/09/13 02:56:57;;;;;;;;;;;17.00;99.90;;;;;;5030644;28;20387;-30
2022/09/13 02:59:23;;;;;;;;;;;17.00;99.90;;;;;;5013844;28;19917;-30
2022/09/13 03:02:04;;;;;;;;;;;17.10;99.90;;;;;;5027885;28;20008;-30
2022/09/13 03:04:31;;;;;;;;;;;17.00;99.90;;;;;;5033297;28;20398;-30
2022/09/13 03:06:56;;;;;;;;;;;17.10;99.90;;;;;;5027170;28;20004;-30
2022/09/13 03:09:22;;;;;;;;;;;17.10;99.90;;;;;;5016562;28;20044;-30
2022/09/13 03:11:57;;;;;;;;;;;17.00;99.90;;;;;;5016490;28;19971;-30
2022/09/13 03:14:41;;;;;;;;;;;17.10;99.90;;;;;;5027630;28;19917;-30
2022/09/13 03:17:22;;;;;;;;;;;17.10;99.90;;;;;;5027916;28;19916;-30
2022/09/13 03:19:51;;;;;;;;;;;17.10;99.90;;;;;;5028772;28;19996;-30
2022/09/13 03:22:17;;;;;;;;;;;17.10;99.90;;;;;;5024790;28;20095;-30
2022/09/13 03:24:42;;;;;;;;;;;17.10;99.90;;;;;;5032569;28;20374;-30
2022/09/13 03:27:08;;;;;;;;;;;17.20;99.90;;;;;;5020038;28;19944;-30
2022/09/13 03:29:36;;;;;;;;;;;17.10;99.90;;;;;;5011714;28;20298;-30
2022/09/13 03:32:02;;;;;;;;;;;17.10;99.90;;;;;;5027212;28;19941;-30
2022/09/13 03:34:34;;;;;;;;;;;17.20;99.90;;;;;;5016625;28;19921;-30
2022/09/13 03:37:06;;;;;;;;;;;17.20;99.90;;;;;;5030816;28;19928;-30
2022/09/13 03:39:41;;;;;;;;;;;17.20;99.90;;;;;;5022272;28;19917;-30
2022/09/13 03:42:27;;;;;;;;;;;17.20;99.90;;;;;;5029443;28;19928;-30
2022/09/13 03:44:54;;;;;;;;;;;17.20;99.90;;;;;;5033668;28;20404;-30
2022/09/13 03:47:21;;;;;;;;;;;17.20;99.90;;;;;;5018707;28;20366;-30
2022/09/13 03:49:47;;;;;;;;;;;17.20;99.90;;;;;;5014892;28;19924;-31
2022/09/13 03:52:13;;;;;;;;;;;17.20;99.90;;;;;;5021126;28;19916;-31
2022/09/13 03:54:39;;;;;;;;;;;17.20;99.90;;;;;;5013071;28;19917;-30
2022/09/13 03:57:07;;;;;;;;;;;17.20;99.90;;;;;;5015073;28;20414;-30
2022/09/13 03:59:35;;;;;;;;;;;17.20;99.90;;;;;;5039894;28;19980;-30
2022/09/13 04:02:01;;;;;;;;;;;17.20;99.90;;;;;;5015334;28;19921;-30
2022/09/13 04:04:27;;;;;;;;;;;17.20;99.90;;;;;;5017266;28;19921;-30
2022/09/13 04:06:53;;;;;;;;;;;17.20;99.90;;;;;;5015361;28;19916;-30
2022/09/13 04:09:19;;;;;;;;;;;17.20;99.90;;;;;;5015629;28;20134;-30
2022/09/13 04:11:45;;;;;;;;;;;17.20;99.90;;;;;;5017034;28;19917;-30
2022/09/13 04:14:10;;;;;;;;;;;17.20;99.90;;;;;;5025491;28;20431;-30
2022/09/13 04:16:36;;;;;;;;;;;17.20;99.90;;;;;;5029573;28;19917;-30
2022/09/13 04:19:02;;;;;;;;;;;17.10;99.90;;;;;;5016687;28;20292;-30
2022/09/13 04:21:27;;;;;;;;;;;17.20;99.90;;;;;;5012744;28;19922;-30
2022/09/13 04:23:53;;;;;;;;;;;17.10;99.90;;;;;;5008163;28;19917;-30
2022/09/13 04:26:18;;;;;;;;;;;17.20;99.90;;;;;;5017729;28;20012;-30
2022/09/13 04:28:44;;;;;;;;;;;17.20;99.90;;;;;;5020795;28;19916;-30
2022/09/13 04:31:10;;;;;;;;;;;17.20;99.90;;;;;;5012599;28;19921;-30
2022/09/13 04:33:36;;;;;;;;;;;17.20;99.90;;;;;;5015073;28;19924;-30
2022/09/13 04:36:01;;;;;;;;;;;17.20;99.90;;;;;;5002729;28;19917;-30
2022/09/13 04:38:27;;;;;;;;;;;17.20;99.90;;;;;;5012907;28;19924;-30
2022/09/13 04:40:54;;;;;;;;;;;17.10;99.90;;;;;;5010918;28;19998;-30
2022/09/13 04:43:20;;;;;;;;;;;17.20;99.90;;;;;;5012368;28;19917;-30
2022/09/13 04:45:46;;;;;;;;;;;17.20;99.90;;;;;;5017949;28;19917;-30
2022/09/13 04:48:11;;;;;;;;;;;17.20;99.90;;;;;;5016438;28;20366;-30
2022/09/13 04:50:37;;;;;;;;;;;17.20;99.90;;;;;;5020757;28;20021;-30
2022/09/13 04:53:02;;;;;;;;;;;17.20;99.90;;;;;;5029997;28;19979;-30
2022/09/13 04:55:28;;;;;;;;;;;17.20;99.90;;;;;;5012644;28;19964;-30
2022/09/13 04:57:55;;;;;;;;;;;17.20;99.90;;;;;;5022525;28;19939;-30
2022/09/13 05:00:21;;;;;;;;;;;17.20;99.90;;;;;;5018010;28;19921;-30
2022/09/13 05:02:47;;;;;;;;;;;17.20;99.90;;;;;;5021926;28;19924;-30
2022/09/13 05:05:12;;;;;;;;;;;17.20;99.90;;;;;;5015289;28;20008;-30
2022/09/13 05:07:38;;;;;;;;;;;17.20;99.90;;;;;;5011855;28;20005;-30
2022/09/13 05:10:04;;;;;;;;;;;17.20;99.90;;;;;;5013489;28;19917;-30
2022/09/13 05:12:32;;;;;;;;;;;17.20;99.90;;;;;;5021687;28;19999;-30
2022/09/13 05:14:58;;;;;;;;;;;17.20;99.90;;;;;;5007387;28;19917;-31
2022/09/13 05:17:23;;;;;;;;;;;17.20;99.90;;;;;;5015669;28;19917;-31
2022/09/13 05:19:49;;;;;;;;;;;17.30;99.90;;;;;;5016795;28;20321;-32
2022/09/13 05:22:15;;;;;;;;;;;17.30;99.90;;;;;;5019008;28;20369;-30
2022/09/13 05:24:40;;;;;;;;;;;17.30;99.90;;;;;;5031691;28;19916;-30
2022/09/13 05:27:06;;;;;;;;;;;17.30;99.90;;;;;;5017192;28;19975;-30
2022/09/13 05:29:32;;;;;;;;;;;17.30;99.90;;;;;;5032537;28;19917;-30
2022/09/13 05:31:57;;;;;;;;;;;17.30;99.90;;;;;;5027652;28;19955;-30
2022/09/13 05:34:23;;;;;;;;;;;17.30;99.90;;;;;;5007242;28;20425;-30
2022/09/13 05:36:49;;;;;;;;;;;17.30;99.90;;;;;;5015410;28;19917;-30
2022/09/13 05:39:20;;;;;;;;;;;17.30;99.90;;;;;;4996409;28;19956;-30
2022/09/13 05:41:46;;;;;;;;;;;17.40;99.90;;;;;;5018530;28;19928;-31
2022/09/13 05:44:12;;;;;;;;;;;17.40;99.90;;;;;;5018209;28;19917;-30
2022/09/13 05:46:38;;;;;;;;;;;17.40;99.90;;;;;;5022265;28;19933;-30
2022/09/13 05:49:03;;;;;;;;;;;17.40;99.90;;;;;;5025534;28;20029;-30
2022/09/13 05:51:29;;;;;;;;;;;17.50;99.90;;;;;;5015427;28;20519;-30
2022/09/13 05:53:56;;;;;;;;;;;17.50;99.90;;;;;;5014130;28;20301;-30
2022/09/13 05:56:23;;;;;;;;;;;17.60;99.90;;;;;;5014713;28;19917;-29
2022/09/13 05:58:49;;;;;;;;;;;17.60;99.90;;;;;;5017430;28;19917;-29
2022/09/13 06:01:16;;;;;;;;;;;17.60;99.90;;;;;;5031750;28;19920;-31
2022/09/13 06:03:42;;;;;;;;;;;17.60;99.90;;;;;;5022871;28;20008;-31
2022/09/13 06:06:07;;;;;;;;;;;17.70;99.90;;;;;;5014595;28;19964;-31
2022/09/13 06:08:33;;;;;;;;;;;17.70;99.90;;;;;;5018697;28;19917;-30
2022/09/13 06:11:01;;;;;;;;;;;17.70;99.90;;;;;;5018632;28;19953;-29
2022/09/13 06:13:26;;;;;;;;;;;17.70;99.90;;;;;;5018720;28;19917;-29
2022/09/13 06:15:56;;;;;;;;;;;17.70;99.90;;;;;;5018902;28;19924;-29
2022/09/13 06:18:23;;;;;;;;;;;17.80;99.90;;;;;;5018532;28;20004;-29
2022/09/13 06:20:49;;;;;;;;;;;17.80;99.90;;;;;;5002077;28;20328;-29
2022/09/13 06:23:15;;;;;;;;;;;17.80;99.90;;;;;;5002032;28;20003;-29
2022/09/13 06:25:41;;;;;;;;;;;17.80;99.90;;;;;;5018869;28;20328;-30
2022/09/13 06:28:07;;;;;;;;;;;17.80;99.90;;;;;;5018706;28;20258;-29
2022/09/13 06:30:33;;;;;;;;;;;17.90;99.90;;;;;;5018431;28;19971;-29
2022/09/13 06:32:58;;;;;;;;;;;17.90;99.90;;;;;;5018234;28;19917;-29
2022/09/13 06:35:24;;;;;;;;;;;17.90;99.90;;;;;;5018170;28;19917;-29
2022/09/13 06:37:50;;;;;;;;;;;17.90;99.90;;;;;;5018237;28;20432;-29
2022/09/13 06:40:16;;;;;;;;;;;17.90;99.90;;;;;;5018194;28;19979;-29
2022/09/13 06:42:42;;;;;;;;;;;17.90;99.90;;;;;;5018390;28;19917;-29
2022/09/13 06:45:08;;;;;;;;;;;17.90;99.90;;;;;;5035874;28;19917;-29
2022/09/13 06:47:34;;;;;;;;;;;17.90;99.90;;;;;;5018285;28;20320;-29
2022/09/13 06:50:00;;;;;;;;;;;17.90;99.90;;;;;;5017902;28;19921;-29
2022/09/13 06:52:26;;;;;;;;;;;18.00;99.90;;;;;;5001652;28;19916;-29
2022/09/13 06:54:52;;;;;;;;;;;17.90;99.90;;;;;;5018026;28;19921;-29
2022/09/13 06:57:18;;;;;;;;;;;18.00;99.90;;;;;;5017729;28;19917;-29
2022/09/13 06:59:44;;;;;;;;;;;18.00;99.90;;;;;;5017993;28;19924;-29
2022/09/13 07:02:10;;;;;;;;;;;17.90;99.90;;;;;;5017459;28;20049;-29
2022/09/13 07:04:35;;;;;;;;;;;17.90;99.90;;;;;;5017769;28;19925;-29
2022/09/13 07:07:01;;;;;;;;;;;17.90;99.90;;;;;;5017113;28;19917;-29
2022/09/13 07:09:27;;;;;;;;;;;17.90;99.90;;;;;;5017389;28;19917;-29
2022/09/13 07:11:53;;;;;;;;;;;17.90;99.90;;;;;;5017716;28;19916;-29
2022/09/13 07:14:21;;;;;;;;;;;17.90;99.90;;;;;;5017485;28;19924;-29
2022/09/13 07:16:46;;;;;;;;;;;17.90;99.90;;;;;;5017701;28;20379;-29
2022/09/13 07:19:14;;;;;;;;;;;17.90;99.90;;;;;;5017651;28;19917;-29
2022/09/13 07:21:39;;;;;;;;;;;17.90;99.90;;;;;;5017427;28;20318;-29
2022/09/13 07:24:05;;;;;;;;;;;17.90;99.90;;;;;;5017584;28;19924;-29
2022/09/13 07:26:31;;;;;;;;;;;17.80;99.90;;;;;;5000834;28;19921;-29
2022/09/13 07:28:58;;;;;;;;;;;17.80;99.90;;;;;;5017560;28;20389;-29
2022/09/13 07:31:24;;;;;;;;;;;17.80;99.90;;;;;;5034857;28;19991;-29
2022/09/13 07:33:54;;;;;;;;;;;17.70;99.90;;;;;;5017365;28;19964;-29
2022/09/13 07:36:20;;;;;;;;;;;17.70;99.90;;;;;;5017354;28;19936;-29
2022/09/13 07:38:49;;;;;;;;;;;17.70;99.90;;;;;;5000761;28;20301;-29
2022/09/13 07:41:16;;;;;;;;;;;17.80;99.90;;;;;;5016795;28;19921;-29
2022/09/13 07:43:41;;;;;;;;;;;17.90;99.90;;;;;;5016730;28;19917;-29
2022/09/13 07:46:08;;;;;;;;;;;18.00;99.90;;;;;;5016452;28;19967;-29
2022/09/13 07:48:35;;;;;;;;;;;18.10;99.90;;;;;;5016907;28;19967;-29
2022/09/13 07:51:02;;;;;;;;;;;18.20;99.90;;;;;;5016914;28;19917;-29
2022/09/13 07:53:28;;;;;;;;;;;18.40;99.90;;;;;;5017094;28;19917;-29
2022/09/13 07:55:58;;;;;;;;;;;18.50;99.90;;;;;;5016930;28;20418;-29
2022/09/13 07:58:24;;;;;;;;;;;18.60;99.90;;;;;;5016997;28;19927;-29
2022/09/13 08:00:50;;;;;;;;;;;18.70;99.90;;;;;;5016697;28;19932;-29
2022/09/13 08:03:15;;;;;;;;;;;18.80;99.90;;;;;;5016901;28;20401;-30
2022/09/13 08:05:41;;;;;;;;;;;18.90;99.90;;;;;;5016502;28;20374;-29
2022/09/13 08:08:07;;;;;;;;;;;18.80;99.90;;;;;;5016325;28;20397;-29
2022/09/13 08:10:33;;;;;;;;;;;18.90;99.90;;;;;;5016570;28;20416;-29
2022/09/13 08:12:59;;;;;;;;;;;18.90;99.90;;;;;;5016393;28;19947;-29
2022/09/13 08:15:24;;;;;;;;;;;19.00;99.90;;;;;;5016513;28;20355;-29
2022/09/13 08:17:50;;;;;;;;;;;19.00;99.90;;;;;;5016500;28;20012;-29
2022/09/13 08:20:16;;;;;;;;;;;19.00;99.90;;;;;;5034122;28;19976;-29
2022/09/13 08:22:42;;;;;;;;;;;19.10;99.90;;;;;;5016087;28;19923;-29
2022/09/13 08:25:07;;;;;;;;;;;19.10;99.90;;;;;;5015780;28;19921;-30
2022/09/13 08:27:33;;;;;;;;;;;19.10;99.90;;;;;;5016241;28;20345;-29
2022/09/13 08:29:59;;;;;;;;;;;19.20;99.90;;;;;;5016421;28;20285;-29
2022/09/13 08:32:24;;;;;;;;;;;19.40;99.90;;;;;;5016398;28;19931;-30
2022/09/13 08:34:50;;;;;;;;;;;19.50;99.90;;;;;;5033818;28;19921;-30
2022/09/13 08:37:15;;;;;;;;;;;19.80;99.90;;;;;;5015858;28;19928;-30
2022/09/13 08:39:41;;;;;;;;;;;19.80;99.90;;;;;;5016128;28;19917;-30
2022/09/13 08:42:30;;;;;;;;;;;19.80;99.90;;;;;;5015837;28;20185;-30
2022/09/13 08:44:58;;;;;;;;;;;19.80;99.90;;;;;;5015246;28;19936;-30
2022/09/13 08:47:27;;;;;;;;;;;19.80;99.90;;;;;;5015459;28;19921;-30
2022/09/13 08:50:03;;;;;;;;;;;19.90;99.90;;;;;;5015878;28;19924;-29
2022/09/13 08:52:34;;;;;;;;;;;20.00;99.90;;;;;;5033754;28;20374;-29
2022/09/13 08:55:02;;;;;;;;;;;19.90;99.90;;;;;;5033785;28;20382;-28
2022/09/13 08:57:34;;;;;;;;;;;19.90;99.90;;;;;;5016150;28;19917;-30
2022/09/13 09:00:16;;;;;;;;;;;19.90;99.90;;;;;;5015977;28;19928;-30
2022/09/13 09:03:01;;;;;;;;;;;19.80;99.90;;;;;;5015777;28;19917;-30
2022/09/13 09:05:28;;;;;;;;;;;19.70;99.90;;;;;;5015681;28;19920;-30
2022/09/13 09:08:00;;;;;;;;;;;19.60;99.90;;;;;;5015560;28;19995;-30
2022/09/13 09:10:25;;;;;;;;;;;19.60;99.90;;;;;;5015411;28;20012;-29
2022/09/13 09:12:57;;;;;;;;;;;19.50;99.90;;;;;;4998969;28;20051;-28
2022/09/13 09:15:24;;;;;;;;;;;19.50;99.90;;;;;;5015212;28;19943;-28
2022/09/13 09:17:50;;;;;;;;;;;19.50;99.90;;;;;;5015638;28;20000;-29
2022/09/13 09:20:20;;;;;;;;;;;19.80;99.90;;;;;;5015689;28;20122;-29
2022/09/13 09:22:46;;;;;;;;;;;20.50;99.90;;;;;;5015545;28;19917;-29
2022/09/13 09:25:12;;;;;;;;;;;20.70;99.90;;;;;;5015310;28;19924;-29
2022/09/13 09:27:37;;;;;;;;;;;20.80;99.90;;;;;;5015284;28;19917;-29
2022/09/13 09:30:05;;;;;;;;;;;20.90;99.90;;;;;;5015298;28;19920;-29
2022/09/13 09:32:37;;;;;;;;;;;21.20;99.90;;;;;;5015356;28;20004;-30
2022/09/13 09:35:07;;;;;;;;;;;21.50;99.90;;;;;;5015462;28;19925;-29
2022/09/13 09:37:35;;;;;;;;;;;22.10;99.90;;;;;;5015048;28;19917;-30
2022/09/13 09:40:05;;;;;;;;;;;22.10;99.90;;;;;;5014917;28;19917;-29
2022/09/13 09:42:34;;;;;;;;;;;22.00;99.90;;;;;;5014900;28;19917;-29
2022/09/13 09:45:01;;;;;;;;;;;22.10;99.90;;;;;;5015090;28;20286;-29
2022/09/13 09:47:29;;;;;;;;;;;21.80;99.90;;;;;;5032580;28;19924;-29
2022/09/13 09:50:10;;;;;;;;;;;21.50;99.90;;;;;;5015018;28;19917;-29
2022/09/13 09:52:38;;;;;;;;;;;21.40;99.90;;;;;;5015148;28;19917;-29
2022/09/13 09:55:14;;;;;;;;;;;22.00;99.90;;;;;;5015250;28;20370;-29
2022/09/13 09:57:53;;;;;;;;;;;22.50;99.90;;;;;;5015226;28;19927;-30
2022/09/13 10:00:20;;;;;;;;;;;23.10;99.90;;;;;;5014783;28;20007;-30
2022/09/13 10:02:47;;;;;;;;;;;23.50;99.90;;;;;;5015023;28;20008;-30
2022/09/13 10:05:17;;;;;;;;;;;23.30;99.90;;;;;;4998307;28;19971;-30
2022/09/13 10:07:43;;;;;;;;;;;23.60;99.90;;;;;;5014786;28;19923;-30
2022/09/13 10:10:20;;;;;;;;;;;24.00;99.90;;;;;;5014704;28;19917;-30
2022/09/13 10:12:48;;;;;;;;;;;24.40;99.90;;;;;;5015120;28;20043;-30
2022/09/13 10:15:19;;;;;;;;;;;24.90;99.90;;;;;;5014722;28;19924;-30
2022/09/13 10:18:01;;;;;;;;;;;25.20;99.90;;;;;;5015012;28;19917;-30
2022/09/13 10:20:27;;;;;;;;;;;25.40;99.90;;;;;;5014843;28;19921;-28
2022/09/13 10:23:09;;;;;;;;;;;25.50;99.90;;;;;;4998146;28;19917;-28
2022/09/13 10:25:36;;;;;;;;;;;25.60;99.90;;;;;;5014671;28;19923;-28
2022/09/13 10:28:03;;;;;;;;;;;25.60;77.90;;;;;;5014814;28;20263;-29
2022/09/13 10:30:35;;;;;;;;;;;25.70;97.50;;;;;;5014491;28;19920;-29
2022/09/13 10:33:01;;;;;;;;;;;25.60;90.60;;;;;;5014463;28;19924;-29
2022/09/13 10:35:28;;;;;;;;;;;25.80;99.90;;;;;;5014751;28;19940;-29
2022/09/13 10:37:53;;;;;;;;;;;26.40;93.10;;;;;;5014830;28;19968;-29
2022/09/13 10:40:22;;;;;;;;;;;26.10;84.20;;;;;;4998246;28;20358;-29
2022/09/13 10:42:56;;;;;;;;;;;25.80;93.00;;;;;;5014315;28;19985;-29
2022/09/13 10:45:24;;;;;;;;;;;25.50;92.10;;;;;;5014450;28;19917;-29
2022/09/13 10:47:51;;;;;;;;;;;25.40;95.10;;;;;;5015203;28;19921;-29
2022/09/13 10:50:27;;;;;;;;;;;24.90;96.00;;;;;;4983183;28;19917;-29
2022/09/13 10:52:53;;;;;;;;;;;24.30;97.10;;;;;;4982496;28;19924;-29
2022/09/13 10:55:29;;;;;;;;;;;24.60;99.90;;;;;;4998495;28;19968;-29
2022/09/13 10:58:00;;;;;;;;;;;25.20;99.90;;;;;;4997979;28;19944;-29
2022/09/13 11:00:39;;;;;;;;;;;25.90;99.90;;;;;;4998059;28;19921;-29
2022/09/13 11:03:05;;;;;;;;;;;26.50;95.90;;;;;;4997876;28;19972;-29
2022/09/13 11:05:31;;;;;;;;;;;27.20;96.00;;;;;;4998316;28;19921;-29
2022/09/13 11:08:06;;;;;;;;;;;27.30;71.60;;;;;;4982062;28;20295;-29
2022/09/13 11:10:36;;;;;;;;;;;27.30;86.50;;;;;;4998569;28;20035;-29
2022/09/13 11:13:22;;;;;;;;;;;27.20;76.40;;;;;;4996763;28;19975;-29
2022/09/13 11:15:54;;;;;;;;;;;27.40;78.90;;;;;;4996691;28;20016;-29
2022/09/13 11:18:22;;;;;;;;;;;27.50;73.00;;;;;;4998348;28;19947;-29
2022/09/13 11:21:00;;;;;;;;;;;28.00;65.70;;;;;;4998306;28;20383;-30
2022/09/13 11:23:29;;;;;;;;;;;28.10;60.10;;;;;;4998120;28;20434;-30
2022/09/13 11:26:07;;;;;;;;;;;28.50;61.00;;;;;;4998019;28;19917;-29
2022/09/13 11:28:32;;;;;;;;;;;28.40;64.20;;;;;;4998231;28;20321;-29
2022/09/13 11:31:16;;;;;;;;;;;28.30;58.40;;;;;;4997560;28;19917;-29
2022/09/13 11:33:52;;;;;;;;;;;28.00;78.00;;;;;;4997878;28;20402;-29
2022/09/13 11:36:27;;;;;;;;;;;27.50;62.10;;;;;;4998206;28;19965;-29
2022/09/13 11:39:02;;;;;;;;;;;26.80;62.70;;;;;;4997876;28;20321;-29
2022/09/13 11:41:30;;;;;;;;;;;26.30;65.30;;;;;;4997593;28;19921;-29
2022/09/13 11:43:59;;;;;;;;;;;26.00;74.20;;;;;;5014917;28;19921;-29
2022/09/13 11:46:25;;;;;;;;;;;25.80;71.70;;;;;;4997168;28;20367;-28
2022/09/13 11:48:56;;;;;;;;;;;25.90;65.10;;;;;;4997357;28;19968;-29
2022/09/13 11:51:39;;;;;;;;;;;26.20;71.00;;;;;;4997368;28;20016;-29
2022/09/13 11:54:23;;;;;;;;;;;26.50;72.90;;;;;;4997270;28;19924;-29
2022/09/13 11:56:53;;;;;;;;;;;27.10;68.80;;;;;;4997495;28;19917;-29
2022/09/13 11:59:31;;;;;;;;;;;27.20;62.90;;;;;;4996448;28;19954;-29
2022/09/13 12:01:58;;;;;;;;;;;26.70;81.40;;;;;;4997055;28;19987;-29
2022/09/13 12:04:26;;;;;;;;;;;26.20;69.70;;;;;;4997305;28;19925;-29
2022/09/13 12:06:59;;;;;;;;;;;26.10;68.00;;;;;;4997108;28;19924;-28
2022/09/13 12:09:28;;;;;;;;;;;25.70;61.90;;;;;;4997123;28;19964;-28
2022/09/13 12:11:58;;;;;;;;;;;25.40;70.50;;;;;;4996966;28;19917;-28
2022/09/13 12:14:26;;;;;;;;;;;25.00;75.70;;;;;;4997039;28;19921;-28
2022/09/13 12:17:04;;;;;;;;;;;24.70;83.90;;;;;;4996883;28;19918;-29
2022/09/13 12:19:42;;;;;;;;;;;24.70;90.90;;;;;;5014296;28;19925;-29
2022/09/13 12:22:08;;;;;;;;;;;24.90;90.20;;;;;;4994969;28;19921;-29
2022/09/13 12:24:41;;;;;;;;;;;25.20;92.90;;;;;;5005714;28;20362;-30
2022/09/13 12:27:16;;;;;;;;;;;25.80;75.60;;;;;;5015056;28;19971;-30
2022/09/13 12:29:49;;;;;;;;;;;26.20;63.40;;;;;;5013004;28;20653;-30
2022/09/13 12:32:15;;;;;;;;;;;26.60;56.80;;;;;;5000599;28;19925;-30
2022/09/13 12:34:43;;;;;;;;;;;27.00;62.70;;;;;;5032117;28;20014;-31
2022/09/13 12:37:35;;;;;;;;;;;26.90;56.60;;;;;;5009764;28;20432;-30
2022/09/13 12:40:27;;;;;;;;;;;26.30;56.40;;;;;;5001880;28;19967;-30
2022/09/13 12:43:16;;;;;;;;;;;26.40;67.50;;;;;;5004279;28;19971;-30
2022/09/13 12:46:01;;;;;;;;;;;27.20;60.70;;;;;;5016182;28;19992;-30
2022/09/13 12:48:32;;;;;;;;;;;27.90;58.70;;;;;;5032404;28;20378;-30
2022/09/13 12:51:13;;;;;;;;;;;29.00;55.60;;;;;;5032014;28;19940;-30
2022/09/13 12:53:39;;;;;;;;;;;29.30;50.80;;;;;;5023062;28;19917;-30
2022/09/13 12:56:11;;;;;;;;;;;29.50;51.40;;;;;;5018712;28;20329;-30
2022/09/13 12:58:36;;;;;;;;;;;29.50;50.80;;;;;;5024329;28;19917;-30
2022/09/13 13:01:05;;;;;;;;;;;29.70;50.90;;;;;;5033126;28;19921;-31
2022/09/13 13:03:34;;;;;;;;;;;30.00;49.40;;;;;;5014436;28;19921;-31
2022/09/13 13:06:08;;;;;;;;;;;30.00;46.90;;;;;;5015153;28;19917;-31
2022/09/13 13:08:34;;;;;;;;;;;30.10;49.20;;;;;;5009954;28;19923;-30
2022/09/13 13:11:03;;;;;;;;;;;30.10;46.10;;;;;;5014607;28;20012;-31
2022/09/13 13:13:39;;;;;;;;;;;30.30;48.30;;;;;;5035932;28;20015;-29
2022/09/13 13:16:21;;;;;;;;;;;30.50;48.50;;;;;;4998902;28;19917;-31
2022/09/13 13:18:48;;;;;;;;;;;30.00;48.40;;;;;;5018040;28;20404;-30
2022/09/13 13:21:26;;;;;;;;;;;29.90;49.30;;;;;;5010794;28;19925;-30
2022/09/13 13:24:10;;;;;;;;;;;29.80;48.80;;;;;;5014532;28;20452;-31
2022/09/13 13:26:47;;;;;;;;;;;29.60;47.60;;;;;;5020318;28;19921;-31
2022/09/13 13:29:18;;;;;;;;;;;30.30;48.70;;;;;;5003619;28;19917;-30
2022/09/13 13:31:45;;;;;;;;;;;30.70;46.90;;;;;;5014595;28;20009;-31
2022/09/13 13:34:14;;;;;;;;;;;30.90;47.60;;;;;;5015723;28;19958;-31
2022/09/13 13:36:39;;;;;;;;;;;30.70;48.70;;;;;;5027248;28;19979;-31
2022/09/13 13:39:11;;;;;;;;;;;29.90;45.70;;;;;;5017578;28;19963;-31
2022/09/13 13:41:39;;;;;;;;;;;29.70;46.90;;;;;;5023202;28;19936;-30
2022/09/13 13:44:14;;;;;;;;;;;29.40;47.80;;;;;;5021348;28;19917;-31
2022/09/13 13:46:40;;;;;;;;;;;29.30;47.00;;;;;;5008380;28;19917;-31
2022/09/13 13:49:24;;;;;;;;;;;29.80;48.00;;;;;;5015120;28;19924;-31
2022/09/13 13:52:21;;;;;;;;;;;29.90;45.00;;;;;;5025528;28;19924;-29
2022/09/13 13:54:50;;;;;;;;;;;30.40;46.90;;;;;;4996392;28;20008;-28
2022/09/13 13:57:22;;;;;;;;;;;30.60;44.80;;;;;;5015899;28;19924;-29
2022/09/13 13:59:49;;;;;;;;;;;30.50;45.90;;;;;;5030692;28;19917;-29
2022/09/13 14:02:17;;;;;;;;;;;30.50;46.20;;;;;;5021405;28;20079;-29
2022/09/13 14:05:07;;;;;;;;;;;30.60;45.10;;;;;;5015856;28;19917;-27
2022/09/13 14:07:51;;;;;;;;;;;30.10;46.40;;;;;;5021032;28;19917;-27
2022/09/13 14:10:52;;;;;;;;;;;30.20;44.80;;;;;;5031515;28;19923;-28
2022/09/13 14:13:27;;;;;;;;;;;30.10;44.30;;;;;;4952195;29;20026;-28
2022/09/13 14:16:22;;;;;;;;;;;29.20;44.20;;;;;;5006103;28;19923;-27
2022/09/13 14:19:06;;;;;;;;;;;28.20;45.70;;;;;;4961572;28;19965;-28
2022/09/13 14:21:32;;;;;;;;;;;27.20;48.20;;;;;;5031099;28;19928;-28
2022/09/13 14:24:08;;;;;;;;;;;26.80;51.40;;;;;;5017041;28;19916;-28
2022/09/13 14:26:34;;;;;;;;;;;27.10;50.80;;;;;;5018597;28;19917;-28
2022/09/13 14:29:00;;;;;;;;;;;27.20;49.90;;;;;;5021108;28;20410;-29
2022/09/13 14:31:25;;;;;;;;;;;26.80;50.60;;;;;;5026314;28;19923;-29